Time;durP1;ratioP1;P1;durP2;ratioP2;P2;SDS_P1;SDS_P2;PMS_P1;PMS_P2;Temp;Humidity;BMP_temperature;BMP_pressure;BME280_temperature;BME280_humidity;BME280_pressure;Samples;Min_cycle;Max_cycle;Signal;HPM_P1;HPM_P2
2023/04/04 00:00:51;;;;;;;4.05;1.58;;;;;;;;;;4937945;29;20038;-78
2023/04/04 00:03:17;;;;;;;6.18;1.52;;;;;;;;;;4937346;29;20113;-78
2023/04/04 00:05:44;;;;;;;5.10;1.30;;;;;;;;;;4937712;29;20447;-78
2023/04/04 00:08:10;;;;;;;2.72;1.63;;;;;;;;;;4937519;29;20838;-78
2023/04/04 00:10:36;;;;;;;3.95;1.63;;;;;;;;;;4937903;29;20051;-78
2023/04/04 00:13:02;;;;;;;2.80;1.75;;;;;;;;;;4937305;29;20032;-78
2023/04/04 00:15:28;;;;;;;3.85;1.60;;;;;;;;;;4937496;29;20069;-78
2023/04/04 00:17:54;;;;;;;3.35;1.80;;;;;;;;;;4937295;29;20044;-78
2023/04/04 00:20:20;;;;;;;2.70;1.75;;;;;;;;;;4937387;29;20030;-78
2023/04/04 00:23:14;;;;;;;3.10;1.67;;;;;;;;;;4937432;29;20028;-78
2023/04/04 00:25:40;;;;;;;4.07;2.08;;;;;;;;;;4937234;29;20069;-78
2023/04/04 00:28:06;;;;;;;2.13;1.48;;;;;;;;;;4937516;29;20031;-78
2023/04/04 00:30:33;;;;;;;4.40;1.90;;;;;;;;;;4936680;29;20028;-78
2023/04/04 00:33:00;;;;;;;2.92;1.80;;;;;;;;;;4936655;29;20039;-78
2023/04/04 00:35:26;;;;;;;3.60;1.88;;;;;;;;;;4936855;29;20387;-78
2023/04/04 00:37:52;;;;;;;3.33;1.98;;;;;;;;;;4936655;29;20470;-78
2023/04/04 00:40:18;;;;;;;5.68;1.75;;;;;;;;;;4936835;29;20032;-78
2023/04/04 00:42:45;;;;;;;4.32;1.88;;;;;;;;;;4936756;29;20035;-78
2023/04/04 00:45:11;;;;;;;3.03;1.83;;;;;;;;;;4937132;29;20490;-78
2023/04/04 00:47:37;;;;;;;2.20;1.88;;;;;;;;;;4936714;29;20086;-78
2023/04/04 00:50:03;;;;;;;5.70;2.00;;;;;;;;;;4937042;29;20028;-78
2023/04/04 00:52:29;;;;;;;3.45;1.92;;;;;;;;;;4936693;29;20027;-78
2023/04/04 00:54:56;;;;;;;4.07;2.03;;;;;;;;;;4936407;29;20381;-78
2023/04/04 00:57:23;;;;;;;2.90;1.95;;;;;;;;;;4936640;29;20462;-78
2023/04/04 00:59:49;;;;;;;4.32;1.67;;;;;;;;;;4937113;29;20027;-78
2023/04/04 01:02:15;;;;;;;3.92;1.90;;;;;;;;;;4919397;29;20024;-78
2023/04/04 01:05:00;;;;;;;3.35;1.88;;;;;;;;;;4936421;29;20024;-78
2023/04/04 01:07:48;;;;;;;5.65;1.88;;;;;;;;;;4936485;29;20031;-78
2023/04/04 01:10:15;;;;;;;4.32;1.90;;;;;;;;;;4919665;29;20032;-78
2023/04/04 01:12:41;;;;;;;4.15;2.03;;;;;;;;;;4936950;29;20036;-78
2023/04/04 01:15:07;;;;;;;5.20;2.28;;;;;;;;;;4936617;29;20573;-78
2023/04/04 01:17:33;;;;;;;3.38;1.80;;;;;;;;;;4936474;29;20028;-78
2023/04/04 01:20:06;;;;;;;3.60;2.00;;;;;;;;;;4937176;29;20086;-78
2023/04/04 01:22:33;;;;;;;3.60;2.20;;;;;;;;;;4937154;29;20031;-78
2023/04/04 01:25:00;;;;;;;3.80;2.55;;;;;;;;;;4936526;29;20039;-78
2023/04/04 01:27:26;;;;;;;3.47;2.10;;;;;;;;;;4919724;29;20034;-78
2023/04/04 01:29:52;;;;;;;4.18;1.95;;;;;;;;;;4936901;29;20379;-78
2023/04/04 01:32:27;;;;;;;5.57;2.97;;;;;;;;;;4937746;29;20044;-77
2023/04/04 01:34:59;;;;;;;4.78;2.30;;;;;;;;;;4936793;29;20040;-78
2023/04/04 01:37:32;;;;;;;7.57;2.10;;;;;;;;;;4936236;29;20467;-78
2023/04/04 01:40:01;;;;;;;4.53;2.60;;;;;;;;;;4936372;29;20031;-78
2023/04/04 01:42:27;;;;;;;5.82;2.38;;;;;;;;;;4936248;29;20534;-78
2023/04/04 01:44:54;;;;;;;5.72;2.28;;;;;;;;;;4936766;29;20032;-78
2023/04/04 01:47:20;;;;;;;6.40;2.40;;;;;;;;;;4936289;29;20458;-78
2023/04/04 01:52:50;;;;;;;6.53;2.60;;;;;;;;;;4937039;29;20438;-78
2023/04/04 01:55:16;;;;;;;6.28;2.40;;;;;;;;;;4920732;29;20452;-78
2023/04/04 01:57:42;;;;;;;4.90;2.42;;;;;;;;;;4920675;29;20063;-78
2023/04/04 02:00:08;;;;;;;5.45;2.70;;;;;;;;;;4920598;29;20036;-78
2023/04/04 02:02:34;;;;;;;5.22;2.40;;;;;;;;;;4920647;29;20695;-78
2023/04/04 02:05:00;;;;;;;6.50;2.72;;;;;;;;;;4920914;29;20028;-78
2023/04/04 02:07:27;;;;;;;5.90;3.08;;;;;;;;;;4920520;29;20063;-77
2023/04/04 02:09:53;;;;;;;5.60;2.70;;;;;;;;;;4920364;29;20404;-78
2023/04/04 02:12:19;;;;;;;4.43;2.90;;;;;;;;;;4919816;29;20498;-78
2023/04/04 02:14:45;;;;;;;8.73;3.20;;;;;;;;;;4920134;29;20052;-78
2023/04/04 02:17:11;;;;;;;5.18;2.72;;;;;;;;;;4919946;29;20448;-78
2023/04/04 02:19:37;;;;;;;5.55;3.03;;;;;;;;;;4920485;29;20028;-78
2023/04/04 02:22:03;;;;;;;5.45;3.15;;;;;;;;;;4921144;29;20032;-78
2023/04/04 02:24:29;;;;;;;9.75;3.40;;;;;;;;;;4918474;29;20111;-78
2023/04/04 02:26:55;;;;;;;7.13;3.10;;;;;;;;;;4919659;29;20369;-78
2023/04/04 02:29:21;;;;;;;5.43;3.25;;;;;;;;;;4919833;29;20115;-78
2023/04/04 02:31:48;;;;;;;6.05;3.00;;;;;;;;;;4918413;29;20523;-78
2023/04/04 02:34:22;;;;;;;5.97;3.55;;;;;;;;;;4919839;29;20110;-77
2023/04/04 02:36:48;;;;;;;7.20;3.70;;;;;;;;;;4920591;29;20037;-77
2023/04/04 02:39:14;;;;;;;7.40;3.00;;;;;;;;;;4919937;29;20032;-78
2023/04/04 02:41:40;;;;;;;6.63;3.30;;;;;;;;;;4920681;29;20493;-77
2023/04/04 02:44:08;;;;;;;6.20;3.20;;;;;;;;;;4921358;29;20107;-77
2023/04/04 02:46:34;;;;;;;5.68;3.25;;;;;;;;;;4920036;29;20032;-78
2023/04/04 02:49:00;;;;;;;9.88;3.47;;;;;;;;;;4919437;29;20039;-78
2023/04/04 02:51:26;;;;;;;6.70;3.80;;;;;;;;;;4919726;29;20067;-78
2023/04/04 02:53:52;;;;;;;7.32;3.78;;;;;;;;;;4918602;29;20733;-77
2023/04/04 02:56:18;;;;;;;5.65;3.47;;;;;;;;;;4919207;29;20043;-78
2023/04/04 02:58:44;;;;;;;7.22;4.15;;;;;;;;;;4919199;29;20088;-78
2023/04/04 03:01:11;;;;;;;7.15;3.83;;;;;;;;;;4918254;29;20495;-78
2023/04/04 03:03:37;;;;;;;6.63;3.58;;;;;;;;;;4918099;29;20341;-78
2023/04/04 03:06:03;;;;;;;6.68;3.53;;;;;;;;;;4917756;29;20467;-77
2023/04/04 03:08:29;;;;;;;7.03;3.38;;;;;;;;;;4918919;29;20032;-77
2023/04/04 03:10:55;;;;;;;12.95;3.78;;;;;;;;;;4917541;29;20024;-78
2023/04/04 03:13:21;;;;;;;6.72;3.20;;;;;;;;;;4918982;29;20032;-77
2023/04/04 03:22:05;;;;;;;6.60;3.35;;;;;;;;;;4919062;29;20394;-78
2023/04/04 03:24:31;;;;;;;9.15;3.95;;;;;;;;;;4919342;29;20025;-78
2023/04/04 03:26:59;;;;;;;9.15;3.92;;;;;;;;;;4919108;29;20028;-78
2023/04/04 03:29:25;;;;;;;7.53;3.95;;;;;;;;;;4918810;29;20453;-77
2023/04/04 03:31:52;;;;;;;9.95;3.75;;;;;;;;;;4919173;29;20111;-78
2023/04/04 03:34:18;;;;;;;6.60;3.75;;;;;;;;;;4918823;29;20172;-77
2023/04/04 03:36:45;;;;;;;9.00;4.28;;;;;;;;;;4918721;29;20032;-78
2023/04/04 03:39:11;;;;;;;6.55;3.80;;;;;;;;;;4917392;29;20020;-78
2023/04/04 03:41:37;;;;;;;5.72;4.03;;;;;;;;;;4918556;29;20103;-78
2023/04/04 03:44:04;;;;;;;7.28;3.90;;;;;;;;;;4918608;29;20079;-78
2023/04/04 03:46:30;;;;;;;7.10;3.88;;;;;;;;;;4918813;29;20087;-78
2023/04/04 03:48:56;;;;;;;9.52;3.92;;;;;;;;;;4918951;29;20028;-78
2023/04/04 03:51:23;;;;;;;6.78;3.70;;;;;;;;;;4918578;29;20159;-78
2023/04/04 03:53:49;;;;;;;7.80;4.22;;;;;;;;;;4914242;29;20455;-78
2023/04/04 03:56:16;;;;;;;6.85;4.35;;;;;;;;;;4898346;29;20109;-78
2023/04/04 03:58:54;;;;;;;6.88;3.72;;;;;;;;;;4899551;29;20029;-78
2023/04/04 04:01:22;;;;;;;9.63;3.92;;;;;;;;;;4899716;29;20035;-78
2023/04/04 04:03:48;;;;;;;8.68;4.18;;;;;;;;;;4899624;29;20120;-78
2023/04/04 04:06:14;;;;;;;7.72;3.80;;;;;;;;;;4899324;29;20032;-78
2023/04/04 04:08:40;;;;;;;7.82;4.35;;;;;;;;;;4899639;29;20036;-78
2023/04/04 04:11:07;;;;;;;8.45;4.28;;;;;;;;;;4899307;29;20024;-78
2023/04/04 04:13:34;;;;;;;9.15;4.15;;;;;;;;;;4899283;29;20028;-78
2023/04/04 04:16:00;;;;;;;10.20;4.32;;;;;;;;;;4900766;29;20048;-78
2023/04/04 04:18:26;;;;;;;10.23;4.78;;;;;;;;;;4918090;29;20025;-78
2023/04/04 04:20:57;;;;;;;6.50;4.30;;;;;;;;;;4919499;29;20028;-78
2023/04/04 04:23:23;;;;;;;8.18;4.53;;;;;;;;;;4922267;29;20039;-77
2023/04/04 04:25:50;;;;;;;9.43;4.20;;;;;;;;;;4916946;29;20020;-77
2023/04/04 04:28:16;;;;;;;10.45;5.07;;;;;;;;;;4906781;29;20573;-77
2023/04/04 04:30:43;;;;;;;7.93;4.40;;;;;;;;;;4912311;29;20028;-76
2023/04/04 04:33:09;;;;;;;10.45;5.00;;;;;;;;;;4917092;29;20420;-77
2023/04/04 04:35:40;;;;;;;9.48;4.47;;;;;;;;;;4916714;29;20044;-76
2023/04/04 04:38:07;;;;;;;8.55;4.85;;;;;;;;;;4911376;29;20020;-76
2023/04/04 04:40:33;;;;;;;7.75;5.05;;;;;;;;;;4904445;29;20035;-77
2023/04/04 04:43:00;;;;;;;10.23;5.40;;;;;;;;;;4906217;29;20031;-77
2023/04/04 04:45:26;;;;;;;9.88;5.15;;;;;;;;;;4901251;29;20067;-77
2023/04/04 04:47:52;;;;;;;9.95;5.10;;;;;;;;;;4917381;29;20025;-77
2023/04/04 04:50:18;;;;;;;8.98;4.88;;;;;;;;;;4916669;29;20120;-77
2023/04/04 04:52:44;;;;;;;9.32;5.18;;;;;;;;;;4917142;29;20024;-78
2023/04/04 04:55:10;;;;;;;8.85;5.22;;;;;;;;;;4935658;29;20044;-77
2023/04/04 04:57:37;;;;;;;10.93;5.10;;;;;;;;;;4935534;29;20024;-77
2023/04/04 05:00:04;;;;;;;7.25;4.93;;;;;;;;;;4935640;29;20034;-77
2023/04/04 05:02:30;;;;;;;10.52;5.32;;;;;;;;;;4935428;29;20027;-76
2023/04/04 05:04:56;;;;;;;10.93;5.82;;;;;;;;;;4935867;29;20023;-76
2023/04/04 05:07:22;;;;;;;11.15;5.22;;;;;;;;;;4935525;29;20106;-76
2023/04/04 05:09:50;;;;;;;9.10;5.13;;;;;;;;;;4918353;29;20031;-77
2023/04/04 05:12:16;;;;;;;9.15;4.97;;;;;;;;;;4935794;29;20637;-77
2023/04/04 05:14:43;;;;;;;8.15;5.05;;;;;;;;;;4935483;29;20066;-77
2023/04/04 05:17:09;;;;;;;10.55;4.50;;;;;;;;;;4935501;29;20034;-77
2023/04/04 05:19:35;;;;;;;9.10;5.57;;;;;;;;;;4935779;29;20019;-77
2023/04/04 05:22:02;;;;;;;10.63;5.25;;;;;;;;;;4935418;29;20031;-77
2023/04/04 05:24:28;;;;;;;10.23;5.13;;;;;;;;;;4936741;29;20028;-77
2023/04/04 05:27:00;;;;;;;9.27;5.43;;;;;;;;;;4939192;29;20032;-77
2023/04/04 05:29:28;;;;;;;10.38;5.82;;;;;;;;;;4934456;29;20040;-77
2023/04/04 05:31:54;;;;;;;10.23;6.45;;;;;;;;;;4920186;29;20024;-77
2023/04/04 05:34:20;;;;;;;9.23;5.85;;;;;;;;;;4920268;29;20028;-76
2023/04/04 05:36:46;;;;;;;15.23;6.22;;;;;;;;;;4919039;29;20558;-76
2023/04/04 05:39:12;;;;;;;10.52;5.45;;;;;;;;;;4919629;29;20089;-77
2023/04/04 05:41:38;;;;;;;14.40;6.78;;;;;;;;;;4919948;29;20030;-76
2023/04/04 05:44:04;;;;;;;9.93;5.65;;;;;;;;;;4918644;29;20052;-77
2023/04/04 05:46:30;;;;;;;9.52;5.75;;;;;;;;;;4919757;29;20064;-77
2023/04/04 05:48:56;;;;;;;12.65;6.07;;;;;;;;;;4919748;29;20035;-76
2023/04/04 05:51:22;;;;;;;10.35;6.40;;;;;;;;;;4919669;29;20028;-76
2023/04/04 05:53:48;;;;;;;11.23;6.82;;;;;;;;;;4919493;29;20054;-77
2023/04/04 05:56:14;;;;;;;10.98;6.18;;;;;;;;;;4918244;29;20043;-76
2023/04/04 05:58:41;;;;;;;10.80;6.20;;;;;;;;;;4919676;29;20032;-76
2023/04/04 06:01:08;;;;;;;13.15;6.15;;;;;;;;;;4918342;29;20020;-76
2023/04/04 06:03:34;;;;;;;11.48;6.25;;;;;;;;;;4919684;29;20111;-77
2023/04/04 06:06:03;;;;;;;10.75;6.40;;;;;;;;;;4919857;29;20032;-77
2023/04/04 06:08:29;;;;;;;10.90;6.50;;;;;;;;;;4919713;29;20040;-77
2023/04/04 06:10:55;;;;;;;12.45;6.65;;;;;;;;;;4919416;29;20109;-77
2023/04/04 06:13:23;;;;;;;10.07;6.05;;;;;;;;;;4919114;29;20028;-77
2023/04/04 06:15:49;;;;;;;14.23;7.03;;;;;;;;;;4919861;29;20467;-77
2023/04/04 06:18:16;;;;;;;11.23;6.35;;;;;;;;;;4919366;29;20094;-77
2023/04/04 06:20:42;;;;;;;11.48;6.50;;;;;;;;;;4919639;29;20380;-77
2023/04/04 06:23:08;;;;;;;10.45;6.22;;;;;;;;;;4919148;29;20032;-76
2023/04/04 06:25:35;;;;;;;11.70;6.38;;;;;;;;;;4917917;29;20028;-76
2023/04/04 06:28:03;;;;;;;12.93;6.68;;;;;;;;;;4919069;29;20024;-77
2023/04/04 06:30:29;;;;;;;11.52;6.63;;;;;;;;;;4919420;29;20024;-77
2023/04/04 06:32:56;;;;;;;11.32;7.00;;;;;;;;;;4918920;29;20024;-76
2023/04/04 06:35:22;;;;;;;12.57;6.57;;;;;;;;;;4918835;29;20032;-77
2023/04/04 06:37:53;;;;;;;11.10;6.55;;;;;;;;;;4918799;29;20029;-76
2023/04/04 06:40:19;;;;;;;10.98;6.97;;;;;;;;;;4918880;29;20020;-77
2023/04/04 06:42:54;;;;;;;12.80;6.97;;;;;;;;;;4918906;29;20054;-77
2023/04/04 06:45:20;;;;;;;10.75;6.82;;;;;;;;;;4919206;29;20035;-77
2023/04/04 06:47:48;;;;;;;12.48;6.32;;;;;;;;;;4919105;29;20032;-77
2023/04/04 06:50:14;;;;;;;11.10;6.13;;;;;;;;;;4918916;29;20366;-77
2023/04/04 06:52:43;;;;;;;10.20;6.32;;;;;;;;;;4917446;29;20020;-76
2023/04/04 06:55:09;;;;;;;10.25;6.05;;;;;;;;;;4881443;29;20087;-77
2023/04/04 06:57:37;;;;;;;16.48;7.28;;;;;;;;;;4881273;29;20022;-77
2023/04/04 07:00:03;;;;;;;11.75;6.82;;;;;;;;;;4892169;29;20028;-77
2023/04/04 07:02:29;;;;;;;11.85;6.60;;;;;;;;;;4899691;29;20459;-77
2023/04/04 07:04:55;;;;;;;10.27;5.55;;;;;;;;;;4900609;29;20116;-78
2023/04/04 07:07:21;;;;;;;9.82;5.47;;;;;;;;;;4900593;29;20119;-78
2023/04/04 07:09:47;;;;;;;6.35;4.45;;;;;;;;;;4897690;29;20465;-78
2023/04/04 07:12:13;;;;;;;7.43;4.53;;;;;;;;;;4900939;29;20029;-79
2023/04/04 07:14:39;;;;;;;7.45;4.70;;;;;;;;;;4900317;29;20821;-79
2023/04/04 07:17:06;;;;;;;8.23;4.60;;;;;;;;;;4901339;29;20029;-79
2023/04/04 07:19:32;;;;;;;6.63;4.10;;;;;;;;;;4901386;29;20024;-79
2023/04/04 07:21:58;;;;;;;7.18;4.40;;;;;;;;;;4902137;29;20052;-79
2023/04/04 07:24:23;;;;;;;5.40;3.55;;;;;;;;;;4900285;29;20025;-79
2023/04/04 07:26:50;;;;;;;6.10;3.80;;;;;;;;;;4901332;29;20080;-79
2023/04/04 07:29:16;;;;;;;7.80;4.18;;;;;;;;;;4902381;29;20057;-79
2023/04/04 07:31:42;;;;;;;7.07;4.10;;;;;;;;;;4900511;29;20022;-79
2023/04/04 07:34:08;;;;;;;6.55;3.33;;;;;;;;;;4901397;29;20622;-80
2023/04/04 07:36:36;;;;;;;4.32;3.30;;;;;;;;;;4902005;29;20478;-79
2023/04/04 07:39:09;;;;;;;4.97;3.42;;;;;;;;;;4899562;29;20046;-79
2023/04/04 07:41:35;;;;;;;5.57;3.63;;;;;;;;;;4901092;29;20076;-80
2023/04/04 07:44:01;;;;;;;4.90;3.60;;;;;;;;;;4900156;29;20032;-80
2023/04/04 07:46:27;;;;;;;8.38;4.45;;;;;;;;;;4901022;29;20032;-80
2023/04/04 07:48:53;;;;;;;4.75;3.30;;;;;;;;;;4901520;29;20044;-80
2023/04/04 07:51:27;;;;;;;4.50;3.55;;;;;;;;;;4902026;29;20079;-80
2023/04/04 07:53:53;;;;;;;8.45;4.13;;;;;;;;;;4916957;29;20050;-80
2023/04/04 07:56:20;;;;;;;6.88;3.70;;;;;;;;;;4940228;29;20031;-80
2023/04/04 07:58:46;;;;;;;7.22;3.88;;;;;;;;;;4942038;29;20031;-80
2023/04/04 08:01:12;;;;;;;5.47;3.70;;;;;;;;;;4941330;29;20467;-80
2023/04/04 08:03:38;;;;;;;9.77;5.28;;;;;;;;;;4924539;29;20119;-80
2023/04/04 08:06:04;;;;;;;5.50;3.88;;;;;;;;;;4923932;29;20630;-80
2023/04/04 08:08:30;;;;;;;7.45;3.75;;;;;;;;;;4930360;29;20413;-80
2023/04/04 08:10:56;;;;;;;5.78;3.30;;;;;;;;;;4930738;29;20103;-80
2023/04/04 08:13:22;;;;;;;5.40;3.85;;;;;;;;;;4930030;29;20090;-81
2023/04/04 08:15:48;;;;;;;6.35;3.78;;;;;;;;;;4911463;29;20039;-80
2023/04/04 08:18:15;;;;;;;6.18;3.45;;;;;;;;;;4911158;29;20060;-80
2023/04/04 08:20:41;;;;;;;4.05;3.53;;;;;;;;;;4919585;29;20039;-80
2023/04/04 08:23:09;;;;;;;6.93;3.83;;;;;;;;;;4937181;29;20550;-80
2023/04/04 08:25:35;;;;;;;5.93;3.53;;;;;;;;;;4936687;29;20538;-80
2023/04/04 08:28:05;;;;;;;5.75;3.20;;;;;;;;;;4901352;29;20032;-80
2023/04/04 08:30:37;;;;;;;6.28;3.33;;;;;;;;;;4918311;29;20489;-80
2023/04/04 08:33:08;;;;;;;3.83;3.00;;;;;;;;;;4920147;29;20034;-79
2023/04/04 08:35:34;;;;;;;6.00;3.17;;;;;;;;;;4918686;29;20033;-79
2023/04/04 08:38:04;;;;;;;6.30;3.80;;;;;;;;;;4919909;29;20071;-79
2023/04/04 08:40:31;;;;;;;5.68;3.72;;;;;;;;;;4918510;29;20031;-79
2023/04/04 08:42:58;;;;;;;6.95;3.50;;;;;;;;;;4918171;29;20115;-79
2023/04/04 08:45:27;;;;;;;4.90;2.92;;;;;;;;;;4918630;29;20028;-79
2023/04/04 08:47:54;;;;;;;5.43;3.45;;;;;;;;;;4918256;29;20032;-79
2023/04/04 08:50:21;;;;;;;4.78;2.75;;;;;;;;;;4918252;29;20024;-79
2023/04/04 08:52:48;;;;;;;8.10;2.90;;;;;;;;;;4918457;29;20047;-79
2023/04/04 08:55:14;;;;;;;5.57;2.75;;;;;;;;;;4917230;29;20103;-79
2023/04/04 08:57:40;;;;;;;4.05;2.90;;;;;;;;;;4918051;29;20056;-79
2023/04/04 09:00:07;;;;;;;5.40;2.90;;;;;;;;;;4919996;29;20020;-79
2023/04/04 09:02:33;;;;;;;4.63;3.30;;;;;;;;;;4921740;29;20028;-79
2023/04/04 09:05:01;;;;;;;3.08;2.20;;;;;;;;;;4922141;29;20032;-79
2023/04/04 09:07:27;;;;;;;3.65;2.55;;;;;;;;;;4921933;29;20136;-79
2023/04/04 09:09:53;;;;;;;3.72;2.42;;;;;;;;;;4921634;29;20028;-79
2023/04/04 09:12:21;;;;;;;5.28;2.90;;;;;;;;;;4922225;29;20024;-79
2023/04/04 09:14:50;;;;;;;2.90;2.20;;;;;;;;;;4921911;29;20029;-79
2023/04/04 09:17:17;;;;;;;5.07;2.22;;;;;;;;;;4922589;29;20111;-80
2023/04/04 09:19:43;;;;;;;2.88;2.00;;;;;;;;;;4922820;29;20120;-79
2023/04/04 09:22:11;;;;;;;5.20;2.75;;;;;;;;;;4921527;29;20068;-80
2023/04/04 09:24:41;;;;;;;3.72;2.60;;;;;;;;;;4905309;29;20114;-80
2023/04/04 09:27:09;;;;;;;5.10;2.63;;;;;;;;;;4921200;29;20024;-80
2023/04/04 09:29:36;;;;;;;3.58;2.15;;;;;;;;;;4921704;29;20024;-80
2023/04/04 09:32:07;;;;;;;6.40;3.25;;;;;;;;;;4921175;29;20063;-80
2023/04/04 09:34:33;;;;;;;4.72;3.05;;;;;;;;;;4905060;29;20032;-79
2023/04/04 09:36:59;;;;;;;5.85;2.88;;;;;;;;;;4922915;29;20067;-79
2023/04/04 09:39:25;;;;;;;4.15;2.65;;;;;;;;;;4921758;29;20391;-80
2023/04/04 09:41:52;;;;;;;5.47;2.78;;;;;;;;;;4922825;29;20020;-80
2023/04/04 09:44:18;;;;;;;5.45;2.90;;;;;;;;;;4929433;29;20038;-80
2023/04/04 09:46:50;;;;;;;3.63;2.67;;;;;;;;;;4918735;29;20032;-80
2023/04/04 09:49:21;;;;;;;6.30;2.63;;;;;;;;;;4934165;29;20026;-80
2023/04/04 09:51:53;;;;;;;5.85;3.42;;;;;;;;;;4935152;29;20027;-80
2023/04/04 09:54:23;;;;;;;4.72;2.60;;;;;;;;;;4933850;29;20059;-80
2023/04/04 09:56:49;;;;;;;4.68;2.97;;;;;;;;;;4934609;29;20032;-80
2023/04/04 09:59:17;;;;;;;6.00;2.85;;;;;;;;;;4934720;29;20028;-80
2023/04/04 10:01:44;;;;;;;4.93;2.78;;;;;;;;;;4934620;29;20399;-79
2023/04/04 10:04:10;;;;;;;5.25;2.83;;;;;;;;;;4922405;29;20084;-80
2023/04/04 10:06:37;;;;;;;6.28;2.90;;;;;;;;;;4940281;29;20079;-80
2023/04/04 10:09:04;;;;;;;4.55;2.60;;;;;;;;;;4940644;29;20019;-80
2023/04/04 10:11:33;;;;;;;3.80;2.70;;;;;;;;;;4934828;29;20035;-80
2023/04/04 10:14:14;;;;;;;3.42;2.85;;;;;;;;;;4936200;29;20023;-80
2023/04/04 10:16:45;;;;;;;3.80;2.55;;;;;;;;;;4933899;29;20094;-80
2023/04/04 10:19:12;;;;;;;;;;;;;;;;;;4931619;29;20035;-80
2023/04/04 10:21:38;;;;;;;4.15;2.67;;;;;;;;;;4934914;29;20281;-79
2023/04/04 10:24:07;;;;;;;3.80;2.80;;;;;;;;;;4932029;29;20110;-80
2023/04/04 10:26:33;;;;;;;5.32;2.47;;;;;;;;;;4932011;29;20024;-80
2023/04/04 10:28:59;;;;;;;3.60;2.80;;;;;;;;;;4929760;29;20028;-80
2023/04/04 10:31:27;;;;;;;6.63;2.88;;;;;;;;;;4930427;29;20536;-80
2023/04/04 10:34:03;;;;;;;6.25;3.75;;;;;;;;;;4941618;29;20083;-79
2023/04/04 10:36:38;;;;;;;4.63;3.25;;;;;;;;;;4941625;29;20106;-79
2023/04/04 10:39:13;;;;;;;5.55;3.30;;;;;;;;;;4941905;29;20024;-80
2023/04/04 10:41:40;;;;;;;6.35;3.22;;;;;;;;;;4942095;29;20038;-80
2023/04/04 10:44:32;;;;;;;5.97;2.97;;;;;;;;;;4923427;29;20059;-80
2023/04/04 10:46:59;;;;;;;5.95;3.33;;;;;;;;;;4934190;29;20070;-80
2023/04/04 10:49:25;;;;;;;4.68;3.28;;;;;;;;;;4939603;29;20031;-80
2023/04/04 10:51:52;;;;;;;5.57;3.13;;;;;;;;;;4921332;29;20118;-80
2023/04/04 10:54:18;;;;;;;4.72;3.20;;;;;;;;;;4930375;29;20074;-80
2023/04/04 10:56:45;;;;;;;5.88;3.35;;;;;;;;;;4939315;29;20071;-80
2023/04/04 10:59:12;;;;;;;6.03;3.67;;;;;;;;;;4936348;29;20020;-81
2023/04/04 11:02:07;;;;;;;4.55;3.50;;;;;;;;;;4938257;29;20024;-81
2023/04/04 11:04:36;;;;;;;7.85;3.85;;;;;;;;;;4924703;29;20042;-81
2023/04/04 11:07:08;;;;;;;5.00;3.17;;;;;;;;;;4936284;29;20083;-81
2023/04/04 11:09:47;;;;;;;5.88;3.63;;;;;;;;;;4935822;29;20147;-81
2023/04/04 11:12:18;;;;;;;3.83;3.30;;;;;;;;;;4937664;29;20031;-81
2023/04/04 11:14:54;;;;;;;5.97;3.58;;;;;;;;;;4936354;29;20016;-83
2023/04/04 11:17:43;;;;;;;6.22;4.13;;;;;;;;;;4912260;29;20051;-83
2023/04/04 11:20:10;;;;;;;8.53;4.90;;;;;;;;;;4908822;29;20179;-83
2023/04/04 11:22:36;;;;;;;5.60;3.50;;;;;;;;;;4898830;29;20028;-83
2023/04/04 11:25:21;;;;;;;6.22;3.83;;;;;;;;;;4899949;29;20495;-85
2023/04/04 11:27:47;;;;;;;7.38;4.10;;;;;;;;;;4899723;29;20500;-83
2023/04/04 11:30:13;;;;;;;5.80;4.10;;;;;;;;;;4917166;29;20051;-83
2023/04/04 11:32:43;;;;;;;5.32;3.92;;;;;;;;;;4899649;29;20484;-83
2023/04/04 11:35:09;;;;;;;5.57;3.83;;;;;;;;;;4924469;29;20024;-83
2023/04/04 11:37:42;;;;;;;5.55;3.60;;;;;;;;;;4926886;29;20039;-83
2023/04/04 11:40:11;;;;;;;5.20;3.80;;;;;;;;;;4935594;29;20231;-82
2023/04/04 11:42:38;;;;;;;5.88;3.33;;;;;;;;;;4936015;29;20438;-83
2023/04/04 11:45:09;;;;;;;8.90;3.80;;;;;;;;;;4935364;29;20115;-83
2023/04/04 11:47:35;;;;;;;6.93;4.32;;;;;;;;;;4907265;29;20131;-83
2023/04/04 11:50:07;;;;;;;5.88;3.47;;;;;;;;;;4916554;29;20544;-83
2023/04/04 11:52:37;;;;;;;8.95;4.20;;;;;;;;;;4899296;29;20111;-83
2023/04/04 11:55:03;;;;;;;;;;;;;;;;;;4929900;29;20408;-83
2023/04/04 11:57:29;;;;;;;6.13;3.70;;;;;;;;;;4935366;29;19922;-83
2023/04/04 11:59:55;;;;;;;6.30;3.92;;;;;;;;;;4935009;29;20079;-83
2023/04/04 12:02:30;;;;;;;6.53;3.63;;;;;;;;;;4934882;29;20031;-83
2023/04/04 12:04:56;;;;;;;5.07;3.42;;;;;;;;;;4935391;29;20035;-83
2023/04/04 12:07:23;;;;;;;5.10;3.50;;;;;;;;;;4934968;29;20027;-83
2023/04/04 12:09:49;;;;;;;6.15;4.28;;;;;;;;;;4935257;29;20386;-84
2023/04/04 12:12:16;;;;;;;6.45;3.83;;;;;;;;;;4935307;29;20439;-84
2023/04/04 12:14:42;;;;;;;5.65;3.28;;;;;;;;;;4917907;29;20035;-84
2023/04/04 12:17:08;;;;;;;6.90;3.70;;;;;;;;;;4918377;29;20479;-84
2023/04/04 12:19:38;;;;;;;6.07;3.78;;;;;;;;;;4916837;29;20043;-84
2023/04/04 12:22:04;;;;;;;6.43;3.78;;;;;;;;;;4916070;29;20035;-84
2023/04/04 12:24:31;;;;;;;6.35;3.55;;;;;;;;;;4915650;29;20024;-84
2023/04/04 12:26:57;;;;;;;5.78;3.75;;;;;;;;;;4917236;29;20020;-84
2023/04/04 12:29:26;;;;;;;7.10;4.03;;;;;;;;;;4917006;29;20056;-83
2023/04/04 12:31:53;;;;;;;5.72;3.55;;;;;;;;;;4898764;29;20032;-83
2023/04/04 12:34:23;;;;;;;6.15;3.90;;;;;;;;;;4915307;29;20699;-83
2023/04/04 12:36:52;;;;;;;7.82;4.20;;;;;;;;;;4916130;29;20038;-83
2023/04/04 12:39:19;;;;;;;5.93;4.13;;;;;;;;;;4898799;29;20036;-83
2023/04/04 12:41:52;;;;;;;4.97;3.40;;;;;;;;;;4899695;29;20059;-83
2023/04/04 12:44:45;;;;;;;5.75;3.75;;;;;;;;;;4916853;29;20040;-83
2023/04/04 12:47:14;;;;;;;7.15;3.20;;;;;;;;;;4913805;29;20144;-83
2023/04/04 12:49:41;;;;;;;6.45;3.67;;;;;;;;;;4915652;29;20032;-83
2023/04/04 12:52:15;;;;;;;9.15;4.15;;;;;;;;;;4916958;29;20027;-83
2023/04/04 12:54:41;;;;;;;6.47;3.75;;;;;;;;;;4927351;29;20427;-83
2023/04/04 12:57:08;;;;;;;5.15;3.70;;;;;;;;;;4917395;29;20106;-83
2023/04/04 12:59:34;;;;;;;6.25;3.80;;;;;;;;;;4934647;29;20066;-83
2023/04/04 13:02:07;;;;;;;5.90;3.80;;;;;;;;;;4934507;29;20031;-83
2023/04/04 13:04:34;;;;;;;6.53;3.63;;;;;;;;;;4934984;29;20031;-83
2023/04/04 13:07:01;;;;;;;7.90;4.53;;;;;;;;;;4917414;29;20394;-83
2023/04/04 13:09:27;;;;;;;4.70;3.38;;;;;;;;;;4933991;29;20028;-83
2023/04/04 13:12:00;;;;;;;5.38;3.42;;;;;;;;;;4917055;29;20549;-81
2023/04/04 13:14:46;;;;;;;5.05;3.85;;;;;;;;;;4933837;29;20016;-81
2023/04/04 13:17:13;;;;;;;5.47;3.72;;;;;;;;;;4919819;29;20054;-81
2023/04/04 13:19:39;;;;;;;5.85;3.67;;;;;;;;;;4933829;29;20052;-81
2023/04/04 13:22:07;;;;;;;6.22;3.65;;;;;;;;;;4932528;29;20111;-79
2023/04/04 13:24:33;;;;;;;5.15;3.42;;;;;;;;;;4933593;29;20024;-81
2023/04/04 13:27:00;;;;;;;6.22;3.90;;;;;;;;;;4932384;29;20024;-81
2023/04/04 13:29:26;;;;;;;6.25;3.63;;;;;;;;;;4933698;29;20023;-81
2023/04/04 13:31:52;;;;;;;5.65;3.10;;;;;;;;;;4932854;29;20031;-81
2023/04/04 13:34:20;;;;;;;7.07;3.83;;;;;;;;;;4933198;29;20035;-81
2023/04/04 13:36:46;;;;;;;6.32;2.63;;;;;;;;;;4934614;29;20122;-81
2023/04/04 13:39:12;;;;;;;6.88;3.25;;;;;;;;;;4933527;29;20079;-81
2023/04/04 13:41:38;;;;;;;7.07;3.72;;;;;;;;;;4932298;29;20028;-81
2023/04/04 13:44:04;;;;;;;4.75;2.58;;;;;;;;;;4935886;29;20031;-79
2023/04/04 13:46:30;;;;;;;5.97;3.15;;;;;;;;;;4935313;29;20032;-79
2023/04/04 13:48:56;;;;;;;5.45;3.72;;;;;;;;;;4928179;29;20036;-79
2023/04/04 13:51:23;;;;;;;6.10;3.50;;;;;;;;;;4918054;29;20130;-79
2023/04/04 13:53:49;;;;;;;5.60;3.38;;;;;;;;;;4921650;29;20050;-79
2023/04/04 13:56:15;;;;;;;5.75;3.80;;;;;;;;;;4936866;29;20475;-79
2023/04/04 13:58:41;;;;;;;6.20;4.25;;;;;;;;;;4935439;29;20055;-79
2023/04/04 14:01:08;;;;;;;5.53;3.88;;;;;;;;;;4931062;29;20031;-79
2023/04/04 14:03:34;;;;;;;10.57;3.63;;;;;;;;;;4937447;29;20023;-79
2023/04/04 14:06:00;;;;;;;5.63;2.53;;;;;;;;;;4936970;29;20032;-79
2023/04/04 14:08:26;;;;;;;7.05;2.85;;;;;;;;;;4937642;29;20031;-80
2023/04/04 14:10:52;;;;;;;4.63;3.15;;;;;;;;;;4936699;29;20493;-80
2023/04/04 14:13:18;;;;;;;4.07;2.45;;;;;;;;;;4921702;29;20110;-79
2023/04/04 14:15:51;;;;;;;8.18;4.00;;;;;;;;;;4924452;29;20027;-80
2023/04/04 14:18:23;;;;;;;6.43;3.72;;;;;;;;;;4925050;29;20718;-79
2023/04/04 14:20:49;;;;;;;5.55;3.55;;;;;;;;;;4920071;29;20039;-79
2023/04/04 14:23:15;;;;;;;3.65;2.60;;;;;;;;;;4917515;29;20028;-79
2023/04/04 14:25:41;;;;;;;7.40;3.28;;;;;;;;;;4917255;29;20036;-79
2023/04/04 14:28:07;;;;;;;6.05;3.80;;;;;;;;;;4917448;29;20036;-79
2023/04/04 14:30:33;;;;;;;6.68;3.25;;;;;;;;;;4917240;29;20028;-79
2023/04/04 14:32:59;;;;;;;3.20;1.75;;;;;;;;;;4916143;29;20028;-79
2023/04/04 14:35:25;;;;;;;5.88;3.58;;;;;;;;;;4917174;29;20025;-78
2023/04/04 14:37:51;;;;;;;5.50;2.55;;;;;;;;;;4928841;29;20403;-78
2023/04/04 14:40:17;;;;;;;6.10;3.65;;;;;;;;;;4919012;29;20419;-79
2023/04/04 14:42:43;;;;;;;6.70;3.33;;;;;;;;;;4936053;29;20028;-79
2023/04/04 14:45:11;;;;;;;3.38;2.38;;;;;;;;;;4935699;29;20027;-79
2023/04/04 14:47:37;;;;;;;5.80;3.20;;;;;;;;;;4919577;29;20439;-79
2023/04/04 14:50:03;;;;;;;8.65;3.60;;;;;;;;;;4917217;29;20035;-79
2023/04/04 14:52:29;;;;;;;5.13;2.60;;;;;;;;;;4916941;29;20035;-79